Time;durP1;ratioP1;P1;durP2;ratioP2;P2;SDS_P1;SDS_P2;PMS_P1;PMS_P2;Temp;Humidity;BMP_temperature;BMP_pressure;BME280_temperature;BME280_humidity;BME280_pressure;Samples;Min_cycle;Max_cycle;Signal;HPM_P1;HPM_P2
2023/07/15 00:03:00;;;;;;;9.85;6.43;;;17.10;99.90;;;;;;25593704;23;20063;-47
2023/07/15 00:13:01;;;;;;;8.25;5.40;;;17.00;99.90;;;;;;25592947;23;20327;-47
2023/07/15 00:23:33;;;;;;;8.90;5.80;;;17.10;99.90;;;;;;25593307;23;20009;-57
2023/07/15 00:33:35;;;;;;;9.50;5.80;;;16.90;99.90;;;;;;25602080;23;20076;-47
2023/07/15 00:44:03;;;;;;;8.25;5.28;;;16.60;99.90;;;;;;25592062;23;20143;-48
2023/07/15 00:54:06;;;;;;;11.20;6.43;;;16.10;99.90;;;;;;25592270;23;20310;-57
2023/07/15 01:04:08;;;;;;;9.55;6.72;;;15.50;99.90;;;;;;25591150;23;20009;-56
2023/07/15 01:14:12;;;;;;;10.73;7.40;;;15.10;99.90;;;;;;25590881;23;20004;-47
2023/07/15 01:24:16;;;;;;;11.88;7.35;;;14.90;99.90;;;;;;25628449;23;20009;-56
2023/07/15 01:34:19;;;;;;;15.63;9.75;;;14.70;99.90;;;;;;25596431;23;20017;-56
2023/07/15 01:44:22;;;;;;;14.00;9.55;;;14.60;99.90;;;;;;25589541;23;20005;-47
2023/07/15 01:54:24;;;;;;;16.85;9.35;;;14.60;99.90;;;;;;25589286;23;20040;-44
2023/07/15 02:04:26;;;;;;;13.93;9.15;;;14.60;99.90;;;;;;25588913;23;20024;-46
2023/07/15 02:14:28;;;;;;;13.80;9.43;;;14.80;99.90;;;;;;25588665;23;20005;-57
2023/07/15 02:24:31;;;;;;;15.60;9.60;;;14.70;99.90;;;;;;25586985;23;20324;-44
2023/07/15 02:34:32;;;;;;;14.70;8.15;;;14.80;99.90;;;;;;25586699;23;20017;-47
2023/07/15 02:44:34;;;;;;;12.73;8.15;;;14.90;99.90;;;;;;25587905;23;20005;-47
2023/07/15 02:54:36;;;;;;;11.40;7.72;;;14.90;99.90;;;;;;25587597;23;20360;-56
2023/07/15 03:04:38;;;;;;;11.75;7.45;;;15.00;99.90;;;;;;25585863;23;20404;-57
2023/07/15 03:14:42;;;;;;;13.90;7.60;;;15.20;99.90;;;;;;25587287;23;20009;-45
2023/07/15 03:24:43;;;;;;;13.07;9.25;;;15.30;99.90;;;;;;25587233;23;20005;-57
2023/07/15 03:34:45;;;;;;;15.52;8.38;;;15.40;99.90;;;;;;25587040;23;20617;-57
2023/07/15 03:44:47;;;;;;;14.93;8.77;;;15.50;99.90;;;;;;25587087;23;20308;-56
2023/07/15 03:54:48;;;;;;;15.80;10.02;;;15.30;99.90;;;;;;25592065;23;20104;-50
2023/07/15 04:04:50;;;;;;;17.67;11.05;;;15.20;99.90;;;;;;25594087;23;20064;-56
2023/07/15 04:14:52;;;;;;;15.30;10.88;;;15.00;99.90;;;;;;25593754;23;20486;-56
2023/07/15 04:24:53;;;;;;;14.50;10.32;;;14.90;99.90;;;;;;25591510;23;20032;-54
2023/07/15 04:34:55;;;;;;;16.20;11.35;;;14.80;99.90;;;;;;25592315;23;20017;-54
2023/07/15 04:44:56;;;;;;;15.55;9.93;;;14.90;99.90;;;;;;25592228;23;20325;-57
2023/07/15 04:54:58;;;;;;;16.23;10.18;;;15.00;99.90;;;;;;25593551;23;20016;-56
2023/07/15 05:05:00;;;;;;;20.67;12.77;;;15.00;99.90;;;;;;25591338;23;20063;-56
2023/07/15 05:15:02;;;;;;;17.70;10.88;;;14.90;99.90;;;;;;25591257;23;20005;-46
2023/07/15 05:25:05;;;;;;;15.88;10.95;;;15.00;99.90;;;;;;25590532;23;20044;-56
2023/07/15 05:35:07;;;;;;;16.88;9.85;;;15.10;99.90;;;;;;25589921;23;20020;-56
2023/07/15 05:45:10;;;;;;;15.32;9.25;;;15.30;99.90;;;;;;25589497;23;20139;-46
2023/07/15 05:55:12;;;;;;;11.43;7.97;;;15.50;99.90;;;;;;25589376;23;20056;-57
2023/07/15 06:05:13;;;;;;;13.60;8.27;;;15.80;99.90;;;;;;25588903;23;20068;-57
2023/07/15 06:15:15;;;;;;;12.38;6.90;;;16.00;99.90;;;;;;25587711;23;20005;-57
2023/07/15 06:25:17;;;;;;;7.28;4.68;;;16.70;99.90;;;;;;25588599;23;20001;-57
2023/07/15 06:35:18;;;;;;;8.45;3.95;;;20.60;99.90;;;;;;25587224;23;20068;-58
2023/07/15 06:45:21;;;;;;;6.45;3.55;;;23.80;99.90;;;;;;25587883;23;20008;-59
2023/07/15 06:55:23;;;;;;;4.32;3.35;;;26.00;99.90;;;;;;25588018;23;20005;-58
2023/07/15 07:05:26;;;;;;;6.00;3.83;;;27.70;99.90;;;;;;25587711;23;20009;-59
2023/07/15 07:15:29;;;;;;;4.13;3.53;;;28.80;97.90;;;;;;25585302;23;20005;-59
2023/07/15 07:25:31;;;;;;;8.13;4.13;;;29.90;96.50;;;;;;25589254;23;20005;-59
2023/07/15 07:35:33;;;;;;;4.78;4.15;;;30.30;94.10;;;;;;25592842;23;20017;-59
2023/07/15 07:45:34;;;;;;;7.38;4.30;;;29.80;93.60;;;;;;25594425;23;20039;-59
2023/07/15 07:55:36;;;;;;;5.50;4.30;;;29.60;94.40;;;;;;25594188;23;20436;-59
2023/07/15 08:05:45;;;;;;;7.32;6.05;;;29.50;95.80;;;;;;25593687;23;20009;-59
2023/07/15 08:15:47;;;;;;;7.20;5.00;;;29.10;94.10;;;;;;25634201;23;20005;-59
2023/07/15 08:25:49;;;;;;;8.93;5.78;;;28.80;95.40;;;;;;25593952;23;20013;-59
2023/07/15 08:35:50;;;;;;;6.03;3.80;;;28.30;97.40;;;;;;25591187;23;20068;-57
2023/07/15 08:45:57;;;;;;;9.82;4.70;;;28.70;96.80;;;;;;25591919;23;20001;-58
2023/07/15 08:56:00;;;;;;;7.95;5.20;;;29.20;96.70;;;;;;25632805;23;20013;-58
2023/07/15 09:06:02;;;;;;;10.27;5.95;;;29.00;98.80;;;;;;25590422;23;20002;-59
2023/07/15 09:16:04;;;;;;;5.65;4.78;;;29.40;95.90;;;;;;25590733;23;20001;-59
2023/07/15 09:26:06;;;;;;;7.45;5.32;;;29.70;97.20;;;;;;25590225;23;20013;-58
2023/07/15 09:36:07;;;;;;;7.88;5.82;;;29.80;96.90;;;;;;25631463;23;20001;-59
2023/07/15 09:46:09;;;;;;;7.85;5.28;;;29.90;97.70;;;;;;25589221;23;20024;-59
2023/07/15 09:56:25;;;;;;;10.98;6.57;;;29.70;97.20;;;;;;25589071;23;20510;-58
2023/07/15 10:06:26;;;;;;;6.70;5.17;;;29.50;94.90;;;;;;25628692;23;20004;-59
2023/07/15 10:16:28;;;;;;;7.18;4.40;;;28.80;98.90;;;;;;25589530;23;20232;-58
2023/07/15 10:26:31;;;;;;;7.85;6.60;;;28.30;99.60;;;;;;25587860;23;20017;-58
2023/07/15 10:36:40;;;;;;;10.55;6.40;;;28.70;98.80;;;;;;25587980;23;20432;-58
2023/07/15 10:46:45;;;;;;;10.57;6.63;;;27.80;99.00;;;;;;25628461;23;20005;-58
2023/07/15 10:56:47;;;;;;;8.63;6.07;;;27.10;99.90;;;;;;25587706;23;20360;-50
2023/07/15 11:06:50;;;;;;;9.77;6.43;;;28.30;99.90;;;;;;25595409;23;20009;-58
2023/07/15 11:16:53;;;;;;;9.25;5.97;;;28.70;99.80;;;;;;25594730;23;20013;-58
2023/07/15 11:26:59;;;;;;;11.02;6.88;;;28.70;99.20;;;;;;25593424;23;20013;-59
2023/07/15 11:37:05;;;;;;;10.77;6.93;;;29.10;99.00;;;;;;25634583;23;20008;-58
2023/07/15 11:47:07;;;;;;;10.63;6.28;;;29.40;97.80;;;;;;25634254;23;20294;-58
2023/07/15 11:57:09;;;;;;;9.55;5.38;;;29.70;96.30;;;;;;25593574;23;20063;-49
2023/07/15 12:07:10;;;;;;;6.13;5.28;;;29.80;98.30;;;;;;25592959;23;20384;-59
2023/07/15 12:17:12;;;;;;;8.23;7.00;;;30.70;98.20;;;;;;25592779;23;20009;-59
2023/07/15 12:27:13;;;;;;;9.43;5.60;;;30.90;95.40;;;;;;25592499;23;20036;-59
2023/07/15 12:37:15;;;;;;;9.75;6.15;;;31.00;97.90;;;;;;25592787;23;20005;-59
2023/07/15 12:47:17;;;;;;;7.63;6.30;;;31.00;96.60;;;;;;25591564;23;20005;-58
2023/07/15 12:57:18;;;;;;;9.32;6.20;;;30.40;95.80;;;;;;25591546;23;20001;-58
2023/07/15 13:07:21;;;;;;;8.77;4.95;;;28.50;97.20;;;;;;25589914;23;20013;-58
2023/07/15 13:17:23;;;;;;;8.68;5.10;;;27.60;99.50;;;;;;25590831;23;20393;-58
2023/07/15 13:27:24;;;;;;;12.20;5.63;;;27.90;99.30;;;;;;25589975;23;20017;-58
2023/07/15 13:37:26;;;;;;;7.32;5.10;;;28.10;98.90;;;;;;25590014;23;20008;-58
2023/07/15 13:47:28;;;;;;;7.57;4.93;;;28.00;98.60;;;;;;25589273;23;20001;-58
2023/07/15 13:57:29;;;;;;;6.90;5.30;;;27.10;97.90;;;;;;25589496;23;20005;-58
2023/07/15 14:07:31;;;;;;;7.88;5.07;;;26.80;98.30;;;;;;25587552;23;20009;-58
2023/07/15 14:17:32;;;;;;;9.75;5.85;;;28.00;99.80;;;;;;25588467;23;20428;-58
2023/07/15 14:27:34;;;;;;;9.00;5.30;;;28.50;96.50;;;;;;25588127;23;20341;-57
2023/07/15 14:37:35;;;;;;;7.70;5.20;;;27.00;98.10;;;;;;25587617;23;20067;-58
2023/07/15 14:47:37;;;;;;;6.30;5.32;;;28.10;96.70;;;;;;25587517;23;20005;-58
2023/07/15 14:57:39;;;;;;;8.10;6.03;;;29.10;95.90;;;;;;25587116;23;20075;-50
2023/07/15 15:07:44;;;;;;;9.77;7.30;;;29.00;96.70;;;;;;25587089;23;20029;-49
2023/07/15 15:17:46;;;;;;;9.13;6.60;;;29.00;96.10;;;;;;25587141;23;20005;-58
2023/07/15 15:27:47;;;;;;;11.50;6.72;;;29.10;95.70;;;;;;25586582;23;20017;-58
2023/07/15 15:37:49;;;;;;;7.68;6.88;;;28.90;96.10;;;;;;25586108;23;20009;-58
2023/07/15 15:47:51;;;;;;;7.85;5.78;;;28.60;96.00;;;;;;25589795;23;20013;-58
2023/07/15 15:57:53;;;;;;;7.85;5.97;;;27.00;97.20;;;;;;25593980;23;20005;-58
2023/07/15 16:07:54;;;;;;;10.40;6.65;;;25.90;98.50;;;;;;25593547;23;20332;-57
2023/07/15 16:17:56;;;;;;;10.65;6.25;;;24.50;99.90;;;;;;25593004;23;20372;-57
2023/07/15 16:27:57;;;;;;;9.05;5.65;;;24.10;99.90;;;;;;25592328;23;20016;-58
2023/07/15 16:38:00;;;;;;;13.85;7.05;;;23.80;99.90;;;;;;25592064;23;20005;-49
2023/07/15 16:48:02;;;;;;;15.85;8.45;;;23.60;99.90;;;;;;25591170;23;20060;-58
2023/07/15 16:58:03;;;;;;;10.85;7.75;;;23.00;99.90;;;;;;25590934;23;20063;-58
2023/07/15 17:08:05;;;;;;;16.15;11.77;;;21.90;99.90;;;;;;25590449;23;20059;-58
2023/07/15 17:18:07;;;;;;;11.80;7.97;;;20.90;99.90;;;;;;25589822;23;20056;-58
2023/07/15 17:28:08;;;;;;;27.20;18.27;;;20.20;99.90;;;;;;25589560;23;20008;-58
2023/07/15 17:38:10;;;;;;;26.48;19.83;;;19.70;99.90;;;;;;25589586;23;20009;-58
2023/07/15 17:48:11;;;;;;;23.40;15.73;;;19.20;99.90;;;;;;25588565;23;20087;-58
2023/07/15 17:58:13;;;;;;;13.50;9.57;;;18.70;99.90;;;;;;25589284;23;20001;-58
2023/07/15 18:08:15;;;;;;;22.63;11.27;;;18.40;99.90;;;;;;25588207;23;20009;-57
2023/07/15 18:18:17;;;;;;;16.17;10.48;;;18.20;99.90;;;;;;25588047;23;20012;-58
2023/07/15 18:28:18;;;;;;;12.52;9.07;;;18.10;99.90;;;;;;25587616;23;20009;-47
2023/07/15 18:38:20;;;;;;;22.75;16.48;;;18.70;99.90;;;;;;25587584;23;20020;-45
2023/07/15 18:48:21;;;;;;;13.70;8.15;;;19.00;99.90;;;;;;25586003;23;20028;-46
2023/07/15 18:58:23;;;;;;;11.43;8.30;;;19.20;99.90;;;;;;25586780;23;20301;-58
2023/07/15 19:08:30;;;;;;;14.20;8.75;;;19.40;99.90;;;;;;25584700;23;20025;-57
2023/07/15 19:18:31;;;;;;;14.00;8.85;;;19.50;99.90;;;;;;25584992;23;20436;-58
2023/07/15 19:28:33;;;;;;;13.50;10.45;;;19.60;99.90;;;;;;25593301;23;20005;-58
2023/07/15 19:38:34;;;;;;;12.48;10.00;;;19.20;99.90;;;;;;25593320;23;20031;-58
2023/07/15 19:48:37;;;;;;;10.35;9.02;;;18.70;99.90;;;;;;25592556;23;20040;-58
2023/07/15 19:58:38;;;;;;;13.77;11.07;;;18.40;99.90;;;;;;25593104;23;20005;-59
2023/07/15 20:08:40;;;;;;;14.15;10.75;;;18.40;99.90;;;;;;25592568;23;20009;-58
2023/07/15 20:18:41;;;;;;;14.57;11.55;;;18.30;99.90;;;;;;25591106;23;20056;-58
2023/07/15 20:28:43;;;;;;;16.95;11.32;;;18.60;99.90;;;;;;25590507;23;20013;-58
2023/07/15 20:38:45;;;;;;;14.55;10.70;;;18.80;99.90;;;;;;25590337;23;20016;-57
2023/07/15 20:48:46;;;;;;;14.60;11.05;;;18.90;99.90;;;;;;25589270;23;20016;-58
2023/07/15 20:58:48;;;;;;;15.75;11.73;;;18.70;99.90;;;;;;25588621;23;20376;-58
2023/07/15 21:08:50;;;;;;;18.60;11.15;;;18.60;99.90;;;;;;25586143;23;20510;-58
2023/07/15 21:18:51;;;;;;;19.45;13.38;;;18.40;99.90;;;;;;25585844;23;20005;-58
2023/07/15 21:28:53;;;;;;;18.13;12.30;;;18.30;99.90;;;;;;25588199;23;20076;-57
2023/07/15 21:38:55;;;;;;;17.77;13.25;;;18.10;99.90;;;;;;25588402;23;20384;-57
2023/07/15 21:48:57;;;;;;;15.98;12.98;;;17.90;99.90;;;;;;25588182;23;20009;-57
2023/07/15 21:58:58;;;;;;;21.25;14.07;;;17.60;99.90;;;;;;25588464;23;20071;-57
2023/07/15 22:09:00;;;;;;;18.48;14.13;;;17.40;99.90;;;;;;25588832;23;20013;-58
2023/07/15 22:19:01;;;;;;;22.27;15.57;;;17.40;99.90;;;;;;25588608;23;20507;-58
2023/07/15 22:29:03;;;;;;;25.45;15.55;;;17.50;99.90;;;;;;25586985;23;20001;-57
2023/07/15 22:39:05;;;;;;;24.75;17.83;;;17.60;99.90;;;;;;25588889;23;20032;-58
2023/07/15 22:49:06;;;;;;;23.20;17.45;;;17.50;99.90;;;;;;25587421;23;20013;-58
2023/07/15 22:59:08;;;;;;;29.63;20.20;;;17.50;99.90;;;;;;25588871;23;20013;-57
2023/07/15 23:09:10;;;;;;;32.30;21.52;;;17.30;99.90;;;;;;25587131;23;20013;-51
2023/07/15 23:19:11;;;;;;;27.85;21.45;;;17.50;99.90;;;;;;25585754;23;20016;-48
2023/07/15 23:29:13;;;;;;;36.00;26.13;;;17.40;99.90;;;;;;25587089;23;20502;-58
2023/07/15 23:39:14;;;;;;;31.35;22.83;;;17.10;99.90;;;;;;25587183;23;20005;-57
2023/07/15 23:49:16;;;;;;;34.08;23.35;;;16.90;99.90;;;;;;25586455;23;20005;-56
2023/07/15 23:59:17;;;;;;;42.92;30.15;;;16.70;99.90;;;;;;25586648;23;20525;-47
